Time;durP1;ratioP1;P1;durP2;ratioP2;P2;SDS_P1;SDS_P2;PMS_P1;PMS_P2;Temp;Humidity;BMP_temperature;BMP_pressure;BME280_temperature;BME280_humidity;BME280_pressure;Samples;Min_cycle;Max_cycle;Signal;HPM_P1;HPM_P2
2024/01/21 00:01:14;;;;;;;66.40;26.20;;;;;;;-0.72;84.77;102461.54;105090;1254;67399;-66
2024/01/21 00:04:01;;;;;;;49.30;24.00;;;;;;;-0.63;84.93;102464.09;104890;1254;139512;-67
2024/01/21 00:06:27;;;;;;;55.00;24.30;;;;;;;-0.55;84.77;102463.89;105120;1254;61267;-66
2024/01/21 00:08:54;;;;;;;51.60;23.10;;;;;;;-0.49;84.73;102463.45;105113;1259;61164;-67
2024/01/21 00:11:21;;;;;;;49.20;20.70;;;;;;;-0.45;84.63;102464.06;105110;1255;138434;-67
2024/01/21 00:13:47;;;;;;;47.00;21.40;;;;;;;-0.43;84.48;102465.50;105041;1258;67333;-67
2024/01/21 00:16:14;;;;;;;54.80;24.90;;;;;;;-0.40;84.51;102473.54;105027;1254;138414;-67
2024/01/21 00:18:41;;;;;;;44.10;21.60;;;;;;;-0.40;84.17;102478.68;105018;1257;61371;-68
2024/01/21 00:21:07;;;;;;;44.40;19.50;;;;;;;-0.41;84.11;102483.73;105014;1259;61106;-67
2024/01/21 00:23:34;;;;;;;37.30;18.90;;;;;;;-0.44;83.90;102480.67;104836;1254;137780;-67
2024/01/21 00:26:00;;;;;;;52.90;21.30;;;;;;;-0.50;83.84;102479.27;105012;1254;66188;-68
2024/01/21 00:28:27;;;;;;;52.40;20.40;;;;;;;-0.54;84.08;102481.27;104890;1256;139247;-67
2024/01/21 00:30:54;;;;;;;45.70;19.60;;;;;;;-0.57;83.96;102480.32;104920;1258;61276;-67
2024/01/21 00:33:21;;;;;;;43.40;18.20;;;;;;;-0.62;83.73;102475.70;104932;1259;139170;-65
2024/01/21 00:35:48;;;;;;;49.20;19.30;;;;;;;-0.69;83.64;102481.04;105026;1258;75756;-67
2024/01/21 00:38:14;;;;;;;50.20;19.10;;;;;;;-0.78;83.56;102484.16;104998;1259;66182;-66
2024/01/21 00:40:41;;;;;;;50.50;20.50;;;;;;;-0.87;83.50;102487.05;104950;1259;139518;-67
2024/01/21 00:43:08;;;;;;;42.90;19.00;;;;;;;-0.96;83.44;102491.95;105105;1259;61705;-67
2024/01/21 00:45:34;;;;;;;51.50;22.50;;;;;;;-1.04;83.49;102497.61;104858;1255;138711;-66
2024/01/21 00:48:01;;;;;;;54.70;25.30;;;;;;;-1.08;83.74;102500.83;105084;1257;74438;-68
2024/01/21 00:50:28;;;;;;;63.30;28.40;;;;;;;-1.11;83.67;102503.95;105084;1256;66012;-66
2024/01/21 00:52:55;;;;;;;71.60;29.20;;;;;;;-1.11;83.78;102504.83;104912;1258;138521;-67
2024/01/21 00:55:21;;;;;;;62.80;24.30;;;;;;;-1.11;83.82;102508.42;105018;1259;60473;-67
2024/01/21 00:57:48;;;;;;;58.70;22.40;;;;;;;-1.07;84.05;102510.44;104996;1257;139777;-67
2024/01/21 01:00:15;;;;;;;59.90;19.20;;;;;;;-0.98;84.49;102514.57;105093;1254;75683;-59
2024/01/21 01:02:42;;;;;;;63.80;20.40;;;;;;;-0.87;84.59;102511.48;105092;1258;65802;-66
2024/01/21 01:05:08;;;;;;;53.50;18.60;;;;;;;-0.80;84.51;102511.34;104923;1258;138673;-59
2024/01/21 01:07:35;;;;;;;53.20;19.50;;;;;;;-0.73;84.57;102509.73;104938;1257;61359;-68
2024/01/21 01:10:02;;;;;;;50.30;18.90;;;;;;;-0.68;84.51;102510.46;104998;1259;138931;-67
2024/01/21 01:12:29;;;;;;;44.30;16.00;;;;;;;-0.63;84.46;102500.94;105041;1254;75374;-67
2024/01/21 01:14:55;;;;;;;35.90;13.80;;;;;;;-0.64;84.40;102494.08;105021;1259;66125;-67
2024/01/21 01:17:22;;;;;;;37.50;14.60;;;;;;;-0.66;84.08;102496.86;104894;1257;138804;-68
2024/01/21 01:19:48;;;;;;;38.00;15.00;;;;;;;-0.68;84.10;102501.48;104945;1255;61369;-68
2024/01/21 01:22:15;;;;;;;37.80;14.50;;;;;;;-0.72;83.96;102501.42;104903;1256;139212;-68
2024/01/21 01:24:42;;;;;;;35.10;15.00;;;;;;;-0.76;83.96;102500.15;105117;1254;75611;-67
2024/01/21 01:27:09;;;;;;;35.40;16.10;;;;;;;-0.81;83.84;102500.50;105060;1259;66678;-67
2024/01/21 01:29:36;;;;;;;44.30;16.50;;;;;;;-0.89;83.72;102501.16;105020;1256;139197;-68
2024/01/21 01:32:04;;;;;;;35.70;15.80;;;;;;;-0.96;83.94;102498.04;105023;1259;61235;-67
2024/01/21 01:34:30;;;;;;;36.20;15.80;;;;;;;-1.04;83.72;102495.02;105053;1254;139150;-60
2024/01/21 01:36:57;;;;;;;37.50;14.70;;;;;;;-1.12;83.81;102496.92;105044;1254;75341;-59
2024/01/21 01:39:24;;;;;;;35.00;15.10;;;;;;;-1.20;83.69;102501.03;104963;1256;139069;-59
2024/01/21 01:41:50;;;;;;;35.90;15.90;;;;;;;-1.28;83.73;102499.64;105090;1257;72443;-67
2024/01/21 01:44:17;;;;;;;32.10;14.60;;;;;;;-1.37;83.70;102495.73;105007;1259;61359;-67
2024/01/21 01:46:44;;;;;;;34.10;14.90;;;;;;;-1.46;83.54;102488.59;104966;1255;139531;-67
2024/01/21 01:49:11;;;;;;;33.90;16.70;;;;;;;-1.52;83.70;102488.48;104822;1254;75024;-60
2024/01/21 01:51:37;;;;;;;33.50;15.10;;;;;;;-1.54;83.87;102484.80;104996;1254;138894;-59
2024/01/21 01:54:05;;;;;;;29.30;15.50;;;;;;;-1.48;84.26;102488.70;104951;1255;72787;-62
2024/01/21 01:56:31;;;;;;;34.60;15.60;;;;;;;-1.38;84.50;102491.45;108977;1255;59202;-58
2024/01/21 01:59:01;;;;;;;33.90;15.00;;;;;;;-1.27;84.86;102494.53;109028;1259;139085;-59
2024/01/21 02:01:28;;;;;;;37.90;17.10;;;;;;;-1.17;84.77;102499.17;109126;1254;73785;-58
2024/01/21 02:03:56;;;;;;;42.90;17.30;;;;;;;-1.04;84.93;102494.98;109053;1257;139064;-59
2024/01/21 02:06:23;;;;;;;26.50;14.00;;;;;;;-0.91;85.05;102492.25;109137;1255;72666;-60
2024/01/21 02:08:49;;;;;;;31.00;16.00;;;;;;;-0.86;84.72;102495.54;109166;1254;59035;-59
2024/01/21 02:11:16;;;;;;;31.90;14.20;;;;;;;-0.83;84.64;102499.19;109036;1256;139465;-59
2024/01/21 02:13:43;;;;;;;27.20;14.90;;;;;;;-0.78;84.68;102505.35;109135;1255;73515;-59
2024/01/21 02:16:10;;;;;;;29.70;14.60;;;;;;;-0.72;84.79;102507.14;109067;1254;139364;-59
2024/01/21 02:18:37;;;;;;;25.70;15.70;;;;;;;-0.60;85.07;102505.92;107280;1257;72841;-61
2024/01/21 02:21:04;;;;;;;32.70;15.80;;;;;;;-0.47;85.08;102504.32;104796;1258;61403;-59
2024/01/21 02:23:31;;;;;;;29.00;15.00;;;;;;;-0.37;84.96;102502.38;104906;1259;139571;-58
2024/01/21 02:25:58;;;;;;;28.80;15.10;;;;;;;-0.27;84.92;102498.70;105056;1254;75296;-60
2024/01/21 02:28:25;;;;;;;29.70;14.50;;;;;;;-0.17;85.05;102501.96;104945;1255;138871;-59
2024/01/21 02:30:51;;;;;;;26.80;14.10;;;;;;;-0.07;85.14;102508.74;104997;1258;73509;-60
2024/01/21 02:33:18;;;;;;;26.00;13.40;;;;;;;0.03;84.93;102511.91;104899;1259;138716;-60
2024/01/21 02:35:45;;;;;;;23.70;14.20;;;;;;;0.12;84.89;102512.60;109048;1254;59677;-60
2024/01/21 02:38:11;;;;;;;26.30;14.90;;;;;;;0.16;84.72;102513.38;109136;1254;72585;-59
2024/01/21 02:40:38;;;;;;;26.90;14.20;;;;;;;0.22;84.81;102513.39;108949;1254;139220;-58
2024/01/21 02:43:07;;;;;;;23.80;13.90;;;;;;;0.26;84.74;102511.36;108962;1256;73816;-58
2024/01/21 02:45:34;;;;;;;25.90;13.80;;;;;;;0.30;84.54;102507.44;109008;1254;138281;-59
2024/01/21 02:48:01;;;;;;;24.70;14.00;;;;;;;0.36;84.61;102505.52;107675;1258;60855;-61
2024/01/21 02:50:28;;;;;;;25.50;14.40;;;;;;;0.43;84.48;102507.43;104777;1261;73051;-67
2024/01/21 02:52:55;;;;;;;27.70;14.20;;;;;;;0.49;84.37;102508.68;104944;1257;137768;-68
2024/01/21 02:55:21;;;;;;;27.90;15.00;;;;;;;0.54;84.54;102511.55;105001;1258;72047;-67
2024/01/21 02:57:48;;;;;;;30.40;15.20;;;;;;;0.56;84.27;102507.66;104986;1255;138820;-68
2024/01/21 03:00:16;;;;;;;28.40;15.10;;;;;;;0.60;84.50;102502.96;105003;1256;61272;-66
2024/01/21 03:02:42;;;;;;;29.30;16.30;;;;;;;0.64;84.63;102505.88;104776;1256;74740;-66
2024/01/21 03:05:09;;;;;;;28.70;15.70;;;;;;;0.66;84.42;102508.30;104945;1259;138633;-67
2024/01/21 03:07:36;;;;;;;28.10;16.30;;;;;;;0.65;84.35;102505.63;105035;1257;73281;-67
2024/01/21 03:10:04;;;;;;;32.60;17.50;;;;;;;0.66;84.26;102511.27;104921;1254;138535;-66
2024/01/21 03:12:30;;;;;;;26.90;16.40;;;;;;;0.70;84.45;102515.31;105290;1254;61234;-67
2024/01/21 03:14:57;;;;;;;26.00;15.90;;;;;;;0.72;84.62;102511.73;105231;1254;75431;-67
2024/01/21 03:17:24;;;;;;;32.60;17.90;;;;;;;0.77;84.66;102511.64;104946;1257;138349;-67
2024/01/21 03:19:50;;;;;;;28.40;16.70;;;;;;;0.82;84.60;102513.13;104875;1254;71984;-60
2024/01/21 03:22:18;;;;;;;28.10;15.10;;;;;;;0.87;84.75;102511.20;104840;1258;139917;-59
2024/01/21 03:24:45;;;;;;;29.90;16.40;;;;;;;0.93;84.63;102503.27;104904;1254;61372;-59
2024/01/21 03:27:13;;;;;;;27.50;16.50;;;;;;;0.97;84.61;102503.63;105051;1255;75388;-60
2024/01/21 03:29:40;;;;;;;26.50;16.10;;;;;;;0.99;84.58;102511.76;105012;1254;140131;-59
2024/01/21 03:32:07;;;;;;;27.00;16.70;;;;;;;1.01;84.65;102518.30;105040;1257;73648;-59
2024/01/21 03:34:33;;;;;;;26.10;15.50;;;;;;;1.02;84.61;102526.38;104863;1259;138785;-60
2024/01/21 03:37:00;;;;;;;26.80;16.40;;;;;;;1.05;84.75;102531.29;104945;1256;61372;-59
2024/01/21 03:39:27;;;;;;;32.20;18.30;;;;;;;1.08;84.57;102530.00;104870;1256;138702;-67
2024/01/21 03:41:53;;;;;;;39.00;21.00;;;;;;;1.11;84.94;102529.39;105104;1256;67294;-67
2024/01/21 03:44:20;;;;;;;44.00;24.10;;;;;;;1.12;84.68;102519.15;105123;1256;70490;-67
2024/01/21 03:46:47;;;;;;;36.90;21.30;;;;;;;1.14;84.80;102515.52;104895;1255;138426;-67
2024/01/21 03:49:13;;;;;;;33.50;18.30;;;;;;;1.17;84.71;102512.33;104898;1259;61286;-67
2024/01/21 03:51:40;;;;;;;30.10;19.20;;;;;;;1.21;84.85;102510.14;104854;1259;138753;-66
2024/01/21 03:54:07;;;;;;;28.60;17.60;;;;;;;1.26;84.73;102507.81;105050;1256;66852;-59
2024/01/21 03:56:33;;;;;;;29.00;17.40;;;;;;;1.32;84.91;102503.33;105098;1257;73611;-67
2024/01/21 03:59:00;;;;;;;28.20;18.30;;;;;;;1.36;84.85;102497.77;104784;1254;138258;-67
2024/01/21 04:01:27;;;;;;;33.80;19.30;;;;;;;1.41;84.85;102497.86;105122;1254;61187;-67
2024/01/21 04:03:53;;;;;;;35.40;19.70;;;;;;;1.42;84.80;102497.08;104909;1259;138096;-59
2024/01/21 04:06:20;;;;;;;32.00;18.90;;;;;;;1.40;84.59;102499.17;104946;1259;66818;-58
2024/01/21 04:08:46;;;;;;;37.90;21.10;;;;;;;1.40;84.68;102499.04;104971;1258;70975;-58
2024/01/21 04:11:13;;;;;;;34.60;20.30;;;;;;;1.42;84.97;102497.23;104871;1259;138192;-59
2024/01/21 04:13:40;;;;;;;36.70;19.40;;;;;;;1.42;84.97;102495.61;105002;1259;61241;-59
2024/01/21 04:16:07;;;;;;;34.60;20.20;;;;;;;1.44;84.82;102498.67;104654;1255;138717;-59
2024/01/21 04:18:33;;;;;;;32.70;18.20;;;;;;;1.42;84.88;102497.26;104937;1257;66680;-58
2024/01/21 04:21:01;;;;;;;33.50;20.00;;;;;;;1.40;84.75;102496.08;105080;1257;71897;-58
2024/01/21 04:23:28;;;;;;;30.30;19.60;;;;;;;1.39;84.81;102492.02;108708;1257;138554;-59
2024/01/21 04:25:55;;;;;;;29.40;19.20;;;;;;;1.41;84.94;102494.05;105010;1259;61269;-66
2024/01/21 04:28:22;;;;;;;30.80;19.40;;;;;;;1.42;85.05;102495.59;105093;1257;138588;-66
2024/01/21 04:30:49;;;;;;;36.10;20.80;;;;;;;1.44;84.88;102500.63;105101;1259;64674;-65
2024/01/21 04:33:15;;;;;;;30.70;18.50;;;;;;;1.47;84.90;102496.38;105056;1259;73058;-59
2024/01/21 04:35:42;;;;;;;35.40;20.40;;;;;;;1.51;85.05;102493.27;105097;1257;61183;-60
2024/01/21 04:38:09;;;;;;;30.50;18.30;;;;;;;1.54;84.99;102489.60;105186;1258;61307;-65
2024/01/21 04:40:37;;;;;;;51.10;27.20;;;;;;;1.58;84.99;102497.86;104969;1256;138532;-66
2024/01/21 04:43:03;;;;;;;56.50;29.60;;;;;;;1.59;85.03;102498.67;105032;1256;66409;-59
2024/01/21 04:45:30;;;;;;;61.70;31.00;;;;;;;1.60;85.07;102496.11;104794;1257;138798;-65
2024/01/21 04:47:56;;;;;;;63.90;34.70;;;;;;;1.60;85.14;102491.80;105081;1255;61247;-65
2024/01/21 04:50:23;;;;;;;75.20;38.50;;;;;;;1.63;85.14;102495.49;105080;1259;61353;-65
2024/01/21 04:52:50;;;;;;;72.00;37.70;;;;;;;1.66;85.29;102496.16;104964;1259;138682;-61
2024/01/21 04:55:16;;;;;;;83.20;39.50;;;;;;;1.67;85.32;102497.42;104753;1257;67353;-59
2024/01/21 04:57:45;;;;;;;89.40;42.40;;;;;;;1.68;85.26;102490.79;104816;1260;138773;-58
2024/01/21 05:00:12;;;;;;;76.80;37.40;;;;;;;1.70;85.30;102487.21;105049;1257;62003;-59
2024/01/21 05:02:39;;;;;;;72.00;35.20;;;;;;;1.71;85.24;102485.20;109162;1254;60456;-60
2024/01/21 05:05:06;;;;;;;88.10;43.60;;;;;;;1.73;85.28;102482.38;109085;1256;138500;-60
2024/01/21 05:07:32;;;;;;;82.00;39.60;;;;;;;1.72;85.35;102479.76;109023;1254;64865;-59
2024/01/21 05:09:59;;;;;;;69.10;33.20;;;;;;;1.72;85.20;102477.65;109047;1257;138691;-59
2024/01/21 05:12:26;;;;;;;65.30;33.60;;;;;;;1.74;85.36;102481.50;109168;1255;59382;-59
2024/01/21 05:14:52;;;;;;;69.30;31.20;;;;;;;1.76;85.24;102480.27;109149;1256;61479;-59
2024/01/21 05:17:19;;;;;;;74.00;34.90;;;;;;;1.75;85.17;102477.58;108877;1257;139389;-59
2024/01/21 05:19:46;;;;;;;58.80;28.10;;;;;;;1.77;85.30;102476.89;109163;1255;65682;-59
2024/01/21 05:22:12;;;;;;;83.70;33.60;;;;;;;1.80;85.28;102478.30;108227;1258;139144;-67
2024/01/21 05:24:39;;;;;;;85.70;32.80;;;;;;;1.82;85.16;102478.33;104997;1259;61272;-59
2024/01/21 05:27:06;;;;;;;75.70;34.10;;;;;;;1.80;85.20;102482.65;105076;1257;61164;-60
2024/01/21 05:29:32;;;;;;;62.10;29.70;;;;;;;1.79;85.13;102480.86;104764;1262;138553;-62
2024/01/21 05:31:59;;;;;;;62.20;31.10;;;;;;;1.76;85.22;102486.15;105026;1257;67291;-58
2024/01/21 05:34:26;;;;;;;54.50;29.70;;;;;;;1.73;85.22;102484.65;104823;1257;138957;-59
2024/01/21 05:36:52;;;;;;;56.10;29.60;;;;;;;1.68;85.27;102489.79;104965;1257;61390;-59
2024/01/21 05:39:19;;;;;;;52.20;27.40;;;;;;;1.64;85.41;102487.83;104937;1259;139780;-66
2024/01/21 05:42:00;;;;;;;47.60;26.10;;;;;;;1.63;85.41;102484.61;106335;1260;72589;-66
2024/01/21 05:44:26;;;;;;;55.50;29.90;;;;;;;1.62;85.47;102488.74;104932;1256;66101;-59
2024/01/21 05:46:53;;;;;;;49.20;26.90;;;;;;;1.63;85.51;102489.10;104883;1257;139591;-61
2024/01/21 05:49:22;;;;;;;58.30;32.30;;;;;;;1.65;85.70;102494.67;105139;1258;61420;-66
2024/01/21 05:51:49;;;;;;;53.50;29.80;;;;;;;1.66;85.61;102492.01;104918;1257;139075;-60
2024/01/21 05:54:16;;;;;;;46.20;25.50;;;;;;;1.65;85.67;102486.86;105029;1257;74011;-60
2024/01/21 05:56:43;;;;;;;45.10;26.00;;;;;;;1.65;85.73;102482.58;105070;1258;65034;-59
2024/01/21 05:59:10;;;;;;;46.50;26.30;;;;;;;1.67;85.86;102480.81;104647;1257;138535;-59
2024/01/21 06:01:36;;;;;;;43.70;23.90;;;;;;;1.67;85.76;102484.45;104991;1257;61184;-59
2024/01/21 06:04:03;;;;;;;51.90;27.30;;;;;;;1.66;85.73;102483.55;104973;1259;138977;-59
2024/01/21 06:06:30;;;;;;;47.80;28.10;;;;;;;1.66;85.65;102484.38;104832;1256;73793;-60
2024/01/21 06:08:57;;;;;;;47.50;24.50;;;;;;;1.66;85.87;102484.56;105089;1259;67280;-60
2024/01/21 06:11:26;;;;;;;43.40;24.70;;;;;;;1.66;85.96;102486.48;104868;1259;138497;-69
2024/01/21 06:13:52;;;;;;;46.80;25.10;;;;;;;1.67;85.95;102484.00;106494;1255;61369;-67
2024/01/21 06:16:19;;;;;;;47.40;27.10;;;;;;;1.68;85.84;102489.36;104783;1259;138545;-67
2024/01/21 06:18:46;;;;;;;47.20;25.50;;;;;;;1.70;85.96;102492.52;104909;1259;74350;-59
2024/01/21 06:21:16;;;;;;;40.70;23.60;;;;;;;1.72;86.05;102493.61;105038;1259;67338;-59
2024/01/21 06:23:44;;;;;;;49.50;25.30;;;;;;;1.71;85.88;102494.20;104897;1259;71554;-59
2024/01/21 06:26:20;;;;;;;45.50;25.90;;;;;;;1.72;85.86;102488.52;104861;1259;61332;-58
2024/01/21 06:28:47;;;;;;;50.10;26.70;;;;;;;1.73;85.87;102485.05;104870;1254;138768;-59
2024/01/21 06:31:14;;;;;;;47.30;25.30;;;;;;;1.74;86.06;102485.46;104919;1257;74172;-60
2024/01/21 06:33:41;;;;;;;49.00;26.70;;;;;;;1.74;85.93;102480.97;104832;1257;138732;-66
2024/01/21 06:36:08;;;;;;;46.40;26.80;;;;;;;1.74;86.02;102480.23;104825;1262;73353;-65
2024/01/21 06:38:34;;;;;;;48.30;26.10;;;;;;;1.76;85.82;102484.75;104797;1262;61247;-70
2024/01/21 06:41:01;;;;;;;51.70;26.00;;;;;;;1.77;85.85;102485.32;104783;1260;138709;-71
2024/01/21 06:43:28;;;;;;;51.00;25.90;;;;;;;1.78;85.82;102483.66;105017;1265;75271;-63
2024/01/21 06:45:55;;;;;;;51.10;26.70;;;;;;;1.75;85.85;102484.72;104847;1257;138978;-70
2024/01/21 06:48:21;;;;;;;49.30;26.10;;;;;;;1.72;85.78;102478.70;104874;1257;72098;-72
2024/01/21 06:50:50;;;;;;;44.90;26.70;;;;;;;1.71;85.85;102486.55;104926;1259;61256;-68
2024/01/21 06:53:17;;;;;;;45.90;25.40;;;;;;;1.69;85.81;102488.66;104906;1259;138743;-64
2024/01/21 06:55:44;;;;;;;45.10;23.70;;;;;;;1.71;85.98;102488.48;105046;1256;73894;-65
2024/01/21 06:58:11;;;;;;;42.80;23.60;;;;;;;1.78;86.10;102488.69;104919;1257;138674;-64
2024/01/21 07:00:38;;;;;;;36.40;22.20;;;;;;;1.78;86.04;102483.91;105202;1259;71886;-66
2024/01/21 07:03:05;;;;;;;39.50;23.10;;;;;;;1.78;86.00;102481.80;104961;1256;61785;-66
2024/01/21 07:05:31;;;;;;;35.20;20.10;;;;;;;1.79;86.01;102482.23;105016;1259;138617;-65
2024/01/21 07:07:58;;;;;;;45.10;24.00;;;;;;;1.80;86.02;102487.66;104918;1257;73770;-67
2024/01/21 07:10:25;;;;;;;39.50;22.90;;;;;;;1.81;85.98;102490.41;105565;1257;139051;-66
2024/01/21 07:12:52;;;;;;;45.00;24.20;;;;;;;1.83;85.93;102490.17;104904;1256;72096;-67
2024/01/21 07:15:19;;;;;;;37.60;22.60;;;;;;;1.84;86.06;102495.80;106233;1254;138983;-65
2024/01/21 07:17:46;;;;;;;42.30;24.50;;;;;;;1.85;86.08;102498.82;104973;1254;61330;-67
2024/01/21 07:20:14;;;;;;;40.40;22.00;;;;;;;1.89;86.12;102492.45;106402;1257;73899;-67
2024/01/21 07:22:41;;;;;;;40.60;23.60;;;;;;;1.93;86.09;102495.58;105696;1259;138628;-67
2024/01/21 07:25:09;;;;;;;51.30;28.40;;;;;;;1.96;86.03;102494.08;105045;1259;73122;-67
2024/01/21 07:27:35;;;;;;;42.50;25.10;;;;;;;1.99;85.96;102494.84;105032;1254;138926;-66
2024/01/21 07:30:03;;;;;;;47.00;25.90;;;;;;;2.01;86.02;102491.81;104974;1259;61291;-67
2024/01/21 07:32:30;;;;;;;49.90;26.20;;;;;;;1.99;85.64;102494.23;105099;1258;74512;-67
2024/01/21 07:34:57;;;;;;;49.50;26.60;;;;;;;1.93;85.45;102489.01;104902;1259;138471;-67
2024/01/21 07:37:23;;;;;;;37.60;22.10;;;;;;;1.85;85.32;102492.13;105580;1258;72083;-66
2024/01/21 07:39:50;;;;;;;39.70;23.00;;;;;;;1.78;85.21;102487.84;104835;1255;138660;-67
2024/01/21 07:42:17;;;;;;;44.20;24.10;;;;;;;1.72;85.24;102490.50;104975;1257;62468;-67
2024/01/21 07:44:44;;;;;;;37.10;20.70;;;;;;;1.72;85.35;102496.67;104976;1258;74262;-67
2024/01/21 07:47:11;;;;;;;39.00;22.50;;;;;;;1.79;85.61;102492.23;104857;1257;138444;-68
2024/01/21 07:49:37;;;;;;;42.70;22.70;;;;;;;1.87;85.82;102488.52;104991;1259;73216;-66
2024/01/21 07:52:05;;;;;;;46.40;25.20;;;;;;;1.97;85.94;102486.92;105196;1258;138970;-66
2024/01/21 07:54:32;;;;;;;39.90;25.00;;;;;;;2.04;85.98;102485.14;105099;1259;61329;-66
2024/01/21 07:56:58;;;;;;;45.50;23.20;;;;;;;2.11;85.93;102489.20;104898;1254;75099;-66
2024/01/21 07:59:25;;;;;;;43.70;23.20;;;;;;;2.18;85.79;102486.27;104776;1256;138879;-66
2024/01/21 08:01:52;;;;;;;38.10;22.40;;;;;;;2.21;85.67;102486.05;105070;1260;73929;-67
2024/01/21 08:04:18;;;;;;;43.20;23.90;;;;;;;2.25;85.78;102479.33;105106;1256;138711;-60
2024/01/21 08:06:45;;;;;;;36.60;20.80;;;;;;;2.32;85.83;102479.07;105030;1259;61278;-60
2024/01/21 08:09:12;;;;;;;34.00;20.10;;;;;;;2.40;85.61;102473.64;104986;1260;75337;-59
2024/01/21 08:11:38;;;;;;;39.60;20.80;;;;;;;2.48;85.65;102474.55;104828;1259;138166;-66
2024/01/21 08:14:05;;;;;;;35.10;19.00;;;;;;;2.61;85.58;102474.34;104775;1260;72787;-65
2024/01/21 08:16:32;;;;;;;29.40;18.30;;;;;;;2.67;85.52;102475.56;105682;1256;138655;-60
2024/01/21 08:18:59;;;;;;;33.80;18.70;;;;;;;2.71;85.30;102480.14;105156;1259;61282;-60
2024/01/21 08:21:26;;;;;;;34.50;17.80;;;;;;;2.75;85.26;102474.35;104871;1258;138469;-58
2024/01/21 08:23:52;;;;;;;34.90;18.70;;;;;;;2.77;84.94;102474.55;104979;1254;66543;-60
2024/01/21 08:26:19;;;;;;;32.50;18.20;;;;;;;2.84;85.04;102478.91;105031;1258;73828;-59
2024/01/21 08:28:45;;;;;;;36.40;17.90;;;;;;;2.88;84.90;102475.81;104915;1259;138574;-59
2024/01/21 08:31:13;;;;;;;35.70;17.80;;;;;;;2.94;84.90;102473.73;104898;1259;61172;-60
2024/01/21 08:33:40;;;;;;;36.00;18.80;;;;;;;3.00;84.73;102463.60;108991;1255;139511;-60
2024/01/21 08:36:08;;;;;;;30.10;17.00;;;;;;;3.07;84.62;102461.08;105936;1260;67544;-65
2024/01/21 08:38:35;;;;;;;33.30;16.20;;;;;;;3.14;84.48;102451.93;105390;1259;72255;-60
2024/01/21 08:41:02;;;;;;;29.00;16.20;;;;;;;3.20;84.20;102449.64;104933;1257;139683;-59
2024/01/21 08:43:29;;;;;;;30.60;16.00;;;;;;;3.18;83.95;102449.27;104877;1257;61362;-60
2024/01/21 08:45:55;;;;;;;31.10;14.60;;;;;;;3.17;83.70;102446.65;104765;1255;139333;-58
2024/01/21 08:48:22;;;;;;;28.60;14.50;;;;;;;3.15;83.58;102452.31;105061;1256;66776;-60
2024/01/21 08:50:49;;;;;;;27.70;15.10;;;;;;;3.16;83.61;102454.70;105030;1258;73253;-60
2024/01/21 08:53:15;;;;;;;27.00;16.40;;;;;;;3.16;83.50;102452.09;104889;1259;139101;-63
2024/01/21 08:55:42;;;;;;;31.00;16.10;;;;;;;3.07;83.25;102451.38;104921;1261;61250;-58
2024/01/21 08:58:09;;;;;;;25.70;14.70;;;;;;;3.02;83.24;102455.95;104922;1257;138537;-62
2024/01/21 09:00:36;;;;;;;31.60;17.10;;;;;;;2.98;83.09;102452.52;105048;1260;67186;-60
2024/01/21 09:03:04;;;;;;;25.20;14.50;;;;;;;2.88;82.85;102455.17;105140;1259;73837;-58
2024/01/21 09:05:31;;;;;;;30.10;15.40;;;;;;;2.74;82.62;102453.65;109070;1254;138439;-59
2024/01/21 09:07:57;;;;;;;28.80;14.30;;;;;;;2.61;82.43;102454.67;109064;1256;60023;-60
2024/01/21 09:10:24;;;;;;;34.80;15.20;;;;;;;2.54;82.61;102454.76;108954;1255;138487;-59
2024/01/21 09:12:52;;;;;;;28.70;14.30;;;;;;;2.51;82.66;102455.73;109026;1255;65098;-59
2024/01/21 09:15:21;;;;;;;25.40;14.10;;;;;;;2.52;82.72;102457.91;108785;1255;138881;-59
2024/01/21 09:17:49;;;;;;;26.70;15.50;;;;;;;2.59;82.90;102460.14;107049;1261;61770;-60
2024/01/21 09:20:15;;;;;;;31.00;15.60;;;;;;;2.69;82.95;102461.92;105051;1255;59923;-59
2024/01/21 09:22:42;;;;;;;24.00;14.00;;;;;;;2.77;82.98;102456.54;104673;1260;138552;-58
2024/01/21 09:25:09;;;;;;;22.00;14.10;;;;;;;2.79;82.66;102460.45;104755;1260;261578;-59
2024/01/21 09:27:35;;;;;;;32.80;18.30;;;;;;;2.77;82.51;102466.71;104834;1260;138847;-59
2024/01/21 09:30:03;;;;;;;36.90;16.80;;;;;;;2.73;82.46;102465.19;104828;1261;60503;-58
2024/01/21 09:32:31;;;;;;;28.30;16.80;;;;;;;2.67;82.18;102467.96;105013;1260;61309;-60
2024/01/21 09:34:58;;;;;;;29.10;17.80;;;;;;;2.57;81.97;102468.19;104864;1259;137654;-58
2024/01/21 09:37:25;;;;;;;30.60;17.80;;;;;;;2.48;82.13;102461.38;104898;1259;66598;-63
2024/01/21 09:39:51;;;;;;;23.40;15.70;;;;;;;2.43;82.02;102469.07;104841;1260;138706;-63
2024/01/21 09:42:18;;;;;;;27.10;15.20;;;;;;;2.40;82.03;102468.81;105120;1255;61330;-63
2024/01/21 09:44:45;;;;;;;25.50;14.60;;;;;;;2.40;82.06;102463.91;104739;1265;61332;-63
2024/01/21 09:47:12;;;;;;;30.70;14.60;;;;;;;2.39;82.09;102457.42;104833;1259;138574;-62
2024/01/21 09:49:39;;;;;;;26.50;15.20;;;;;;;2.39;82.22;102453.44;104838;1267;65977;-63
2024/01/21 09:52:06;;;;;;;27.40;15.80;;;;;;;2.44;82.31;102453.70;104911;1254;138966;-63
2024/01/21 09:54:32;;;;;;;29.50;16.60;;;;;;;2.50;82.15;102450.40;104863;1254;61349;-70
2024/01/21 09:57:00;;;;;;;24.60;14.90;;;;;;;2.56;82.32;102449.36;105082;1259;61816;-71
2024/01/21 09:59:27;;;;;;;32.40;15.90;;;;;;;2.60;82.13;102448.84;104912;1256;138444;-71
2024/01/21 10:01:54;;;;;;;31.10;18.40;;;;;;;2.65;82.18;102455.00;104992;1256;66522;-71
2024/01/21 10:04:22;;;;;;;33.80;18.10;;;;;;;2.69;82.24;102454.48;104782;1259;137650;-72
2024/01/21 10:06:51;;;;;;;34.00;18.70;;;;;;;2.77;82.24;102454.27;104878;1260;61302;-72
2024/01/21 10:09:21;;;;;;;35.20;21.20;;;;;;;2.82;82.17;102457.59;104760;1258;61254;-73
2024/01/21 10:11:57;;;;;;;32.10;19.60;;;;;;;2.90;82.34;102460.69;109006;1258;75777;-72
2024/01/21 10:14:27;;;;;;;47.50;26.50;;;;;;;2.99;82.29;102465.09;109069;1256;65046;-72
2024/01/21 10:16:57;;;;;;;30.50;18.20;;;;;;;3.05;82.16;102464.55;108898;1258;138658;-71
2024/01/21 10:19:31;;;;;;;35.70;21.50;;;;;;;3.09;81.92;102460.19;109009;1254;59543;-71
2024/01/21 10:22:08;;;;;;;;;;;;;;;3.10;81.77;102453.86;108825;1256;139407;-71
2024/01/21 10:24:46;;;;;;;38.90;20.80;;;;;;;3.07;81.44;102449.09;108923;1256;75891;-72
2024/01/21 10:27:12;;;;;;;33.70;20.10;;;;;;;3.09;81.46;102457.44;107020;1257;68441;-71
2024/01/21 10:29:43;;;;;;;34.40;21.90;;;;;;;3.12;81.36;102460.77;104841;1254;137937;-71
2024/01/21 10:32:11;;;;;;;32.00;20.80;;;;;;;3.17;81.47;102461.55;109026;1257;59389;-72
2024/01/21 10:34:39;;;;;;;30.50;19.50;;;;;;;3.23;81.36;102454.77;108926;1254;137791;-63
2024/01/21 10:37:07;;;;;;;35.90;22.30;;;;;;;3.31;81.26;102454.21;107084;1254;73764;-64
2024/01/21 10:39:37;;;;;;;36.80;23.80;;;;;;;3.32;80.98;102448.92;104874;1260;138151;-64
2024/01/21 10:42:07;;;;;;;37.40;23.30;;;;;;;3.34;80.96;102452.14;104802;1254;72673;-63
2024/01/21 10:44:34;;;;;;;36.90;22.30;;;;;;;3.35;80.87;102447.23;108844;1259;59158;-63
2024/01/21 10:47:01;;;;;;;37.20;22.70;;;;;;;3.39;80.74;102436.25;109014;1260;59336;-63
2024/01/21 10:49:29;;;;;;;36.80;22.10;;;;;;;3.46;80.84;102433.33;108937;1255;72989;-63
2024/01/21 10:51:56;;;;;;;33.10;19.90;;;;;;;3.53;80.68;102434.60;104826;1261;140413;-62
2024/01/21 10:54:24;;;;;;;37.50;23.30;;;;;;;3.55;80.23;102432.67;104639;1266;72230;-62
2024/01/21 10:56:51;;;;;;;38.40;22.90;;;;;;;3.53;80.09;102422.77;105200;1259;61659;-62
2024/01/21 10:59:19;;;;;;;37.20;23.30;;;;;;;3.52;79.97;102423.23;104461;1260;137717;-62
2024/01/21 11:01:45;;;;;;;39.50;22.80;;;;;;;3.49;79.71;102412.98;104865;1261;75871;-62
2024/01/21 11:04:12;;;;;;;36.20;19.70;;;;;;;3.47;79.56;102400.28;104808;1260;138156;-59